Big Bear Station Historical Data
Daily Summary for February 10, 2019 Units:  Both    English   Metric
Next Day »
Daily Weekly Monthly Yearly Custom
  High: Low: Average:
Temperature: 34.3 °F /  1.3 °C 14.5 °F /  -9.7 °C 23.9 °F /  -4.5 °C
Dew Point: 29.7 °F /  -1.3 °C 6.4 °F /  -14.2 °C 20.5 °F /  -6.4 °C
Humidity: 95% 68% 87%
Wind Speed: 11.9mph /  19.2km/h - 2.4mph /  3.9km/h
Wind Gust: 18.6mph /  29.9km/h - -
Wind- - SW
Pressure: 23.35 in /  790.6 hPa 23.25 in /  787.2 hPa -
Precipitation: 0.00 in /  0 mm    
Historical Graphs
 
 
Tabular Data for February 10, 2019
Time Temperature Dew Point Pressure Wind Wind Speed Wind Gust Humidity Rainfall Rate (Hourly)
00:06 20.8 °F /  -6.2 °C 19.1 °F /  -7.2 °C 23.34in /  790.3hPa Calm   -999.0mph /  -1607.7km/h 93% 0.00in /  0mm
00:21 21.7 °F /  -5.7 °C 20.0 °F /  -6.7 °C 23.34in /  790.3hPa NNW 5.8mph /  9.3km/h -999.0mph /  -1607.7km/h 93% 0.00in /  0mm
00:36 21.6 °F /  -5.8 °C 18.9 °F /  -7.3 °C 23.34in /  790.3hPa NNW 1.1mph /  1.8km/h -999.0mph /  -1607.7km/h 89% 0.00in /  0mm
00:51 21.0 °F /  -6.1 °C 17.5 °F /  -8.1 °C 23.35in /  790.6hPa Calm   -999.0mph /  -1607.7km/h 86% 0.00in /  0mm
01:07 19.9 °F /  -6.7 °C 15.8 °F /  -9 °C 23.35in /  790.6hPa Calm   -999.0mph /  -1607.7km/h 84% 0.00in /  0mm
01:22 20.8 °F /  -6.2 °C 15.9 °F /  -8.9 °C 23.35in /  790.6hPa Calm   -999.0mph /  -1607.7km/h 81% 0.00in /  0mm
01:37 21.4 °F /  -5.9 °C 16.2 °F /  -8.8 °C 23.35in /  790.6hPa Calm   -999.0mph /  -1607.7km/h 80% 0.00in /  0mm
01:52 21.9 °F /  -5.6 °C 14.9 °F /  -9.5 °C 23.34in /  790.3hPa Calm   -999.0mph /  -1607.7km/h 74% 0.00in /  0mm
02:08 22.1 °F /  -5.5 °C 14.5 °F /  -9.7 °C 23.34in /  790.3hPa WNW 4.2mph /  6.8km/h -999.0mph /  -1607.7km/h 72% 0.00in /  0mm
02:23 21.7 °F /  -5.7 °C 14.1 °F /  -9.9 °C 23.33in /  790hPa Calm   -999.0mph /  -1607.7km/h 72% 0.00in /  0mm
02:38 20.7 °F /  -6.3 °C 14.0 °F /  -10 °C 23.33in /  790hPa Calm   -999.0mph /  -1607.7km/h 75% 0.00in /  0mm
02:53 20.3 °F /  -6.5 °C 13.0 °F /  -10.6 °C 23.33in /  790hPa Calm   -999.0mph /  -1607.7km/h 73% 0.00in /  0mm
03:08 19.8 °F /  -6.8 °C 13.2 °F /  -10.4 °C 23.32in /  789.6hPa Calm   -999.0mph /  -1607.7km/h 75% 0.00in /  0mm
03:24 19.8 °F /  -6.8 °C 13.8 °F /  -10.1 °C 23.32in /  789.6hPa Calm   -999.0mph /  -1607.7km/h 77% 0.00in /  0mm
03:39 20.1 °F /  -6.6 °C 12.8 °F /  -10.7 °C 23.32in /  789.6hPa Calm   -999.0mph /  -1607.7km/h 73% 0.00in /  0mm
03:55 19.6 °F /  -6.9 °C 13.3 °F /  -10.4 °C 23.32in /  789.6hPa Calm   -999.0mph /  -1607.7km/h 76% 0.00in /  0mm
04:10 19.2 °F /  -7.1 °C 12.9 °F /  -10.6 °C 23.32in /  789.6hPa Calm   -999.0mph /  -1607.7km/h 76% 0.00in /  0mm
04:25 18.9 °F /  -7.3 °C 12.9 °F /  -10.6 °C 23.32in /  789.6hPa South 2.2mph /  3.5km/h -999.0mph /  -1607.7km/h 77% 0.00in /  0mm
04:40 18.9 °F /  -7.3 °C 13.5 °F /  -10.3 °C 23.31in /  789.3hPa Calm   -999.0mph /  -1607.7km/h 79% 0.00in /  0mm
04:55 18.3 °F /  -7.6 °C 13.4 °F /  -10.3 °C 23.31in /  789.3hPa Calm   -999.0mph /  -1607.7km/h 81% 0.00in /  0mm
05:11 18.3 °F /  -7.6 °C 14.0 °F /  -10 °C 23.32in /  789.6hPa Calm   -999.0mph /  -1607.7km/h 83% 0.00in /  0mm
05:26 17.8 °F /  -7.9 °C 14.9 °F /  -9.5 °C 23.32in /  789.6hPa Calm   -999.0mph /  -1607.7km/h 88% 0.00in /  0mm
05:41 17.1 °F /  -8.3 °C 14.2 °F /  -9.9 °C 23.32in /  789.6hPa Calm   -999.0mph /  -1607.7km/h 88% 0.00in /  0mm
05:56 16.0 °F /  -8.9 °C 13.3 °F /  -10.4 °C 23.31in /  789.3hPa Calm   -999.0mph /  -1607.7km/h 89% 0.00in /  0mm
06:11 14.9 °F /  -9.5 °C 12.2 °F /  -11 °C 23.32in /  789.6hPa SW 1.7mph /  2.7km/h -999.0mph /  -1607.7km/h 89% 0.00in /  0mm
06:27 14.5 °F /  -9.7 °C 12.1 °F /  -11.1 °C 23.32in /  789.6hPa Calm   -999.0mph /  -1607.7km/h 90% 0.00in /  0mm
06:42 15.6 °F /  -9.1 °C 13.7 °F /  -10.2 °C 23.32in /  789.6hPa South 2.7mph /  4.3km/h -999.0mph /  -1607.7km/h 92% 0.00in /  0mm
06:57 15.6 °F /  -9.1 °C 13.9 °F /  -10.1 °C 23.32in /  789.6hPa SSE 1.7mph /  2.7km/h -999.0mph /  -1607.7km/h 93% 0.00in /  0mm
07:12 15.4 °F /  -9.2 °C 13.5 °F /  -10.3 °C 23.32in /  789.6hPa Calm   -999.0mph /  -1607.7km/h 92% 0.00in /  0mm
07:27 16.3 °F /  -8.7 °C 14.4 °F /  -9.8 °C 23.32in /  789.6hPa South 2.2mph /  3.5km/h -999.0mph /  -1607.7km/h 92% 0.00in /  0mm
07:43 17.2 °F /  -8.2 °C 15.3 °F /  -9.3 °C 23.32in /  789.6hPa Calm   -999.0mph /  -1607.7km/h 92% 0.00in /  0mm
07:58 18.3 °F /  -7.6 °C 16.4 °F /  -8.7 °C 23.32in /  789.6hPa Calm   -999.0mph /  -1607.7km/h 92% 0.00in /  0mm
08:13 20.5 °F /  -6.4 °C 19.0 °F /  -7.2 °C 23.32in /  789.6hPa Calm   -999.0mph /  -1607.7km/h 94% 0.00in /  0mm
08:28 22.5 °F /  -5.3 °C 21.0 °F /  -6.1 °C 23.32in /  789.6hPa Calm   -999.0mph /  -1607.7km/h 94% 0.00in /  0mm
08:44 25.0 °F /  -3.9 °C 22.5 °F /  -5.3 °C 23.31in /  789.3hPa SSE 3.7mph /  6km/h -999.0mph /  -1607.7km/h 90% 0.00in /  0mm
08:59 27.5 °F /  -2.5 °C 24.7 °F /  -4.1 °C 23.31in /  789.3hPa SSE 2.2mph /  3.5km/h -999.0mph /  -1607.7km/h 89% 0.00in /  0mm
09:14 28.6 °F /  -1.9 °C 25.8 °F /  -3.4 °C 23.31in /  789.3hPa Calm   -999.0mph /  -1607.7km/h 89% 0.00in /  0mm
09:29 29.5 °F /  -1.4 °C 26.4 °F /  -3.1 °C 23.32in /  789.6hPa NW 2.7mph /  4.3km/h -999.0mph /  -1607.7km/h 88% 0.00in /  0mm
09:44 29.1 °F /  -1.6 °C 25.7 °F /  -3.5 °C 23.31in /  789.3hPa NW 6.3mph /  10.1km/h -999.0mph /  -1607.7km/h 87% 0.00in /  0mm
10:00 29.5 °F /  -1.4 °C 26.1 °F /  -3.3 °C 23.30in /  788.9hPa SSW 4.7mph /  7.6km/h -999.0mph /  -1607.7km/h 87% 0.00in /  0mm
10:15 30.9 °F /  -0.6 °C 26.6 °F /  -3 °C 23.31in /  789.3hPa SW 6.8mph /  10.9km/h -999.0mph /  -1607.7km/h 84% 0.00in /  0mm
10:30 31.6 °F /  -0.2 °C 27.3 °F /  -2.6 °C 23.31in /  789.3hPa SE 2.7mph /  4.3km/h -999.0mph /  -1607.7km/h 84% 0.00in /  0mm
10:45 33.1 °F /  0.6 °C 28.2 °F /  -2.1 °C 23.31in /  789.3hPa NW 5.8mph /  9.3km/h -999.0mph /  -1607.7km/h 82% 0.00in /  0mm
11:00 32.4 °F /  0.2 °C 28.4 °F /  -2 °C 23.31in /  789.3hPa NNW 4.2mph /  6.8km/h -999.0mph /  -1607.7km/h 85% 0.00in /  0mm
11:16 32.0 °F /  0 °C 27.7 °F /  -2.4 °C 23.30in /  788.9hPa South 1.7mph /  2.7km/h -999.0mph /  -1607.7km/h 84% 0.00in /  0mm
11:31 33.8 °F /  1 °C 29.2 °F /  -1.6 °C 23.30in /  788.9hPa SSE 3.7mph /  6km/h -999.0mph /  -1607.7km/h 83% 0.00in /  0mm
11:46 34.3 °F /  1.3 °C 29.7 °F /  -1.3 °C 23.29in /  788.6hPa NW 2.7mph /  4.3km/h -999.0mph /  -1607.7km/h 83% 0.00in /  0mm
12:02 32.9 °F /  0.5 °C 28.3 °F /  -2.1 °C 23.29in /  788.6hPa North 4.2mph /  6.8km/h -999.0mph /  -1607.7km/h 83% 0.00in /  0mm
12:17 33.3 °F /  0.7 °C 28.4 °F /  -2 °C 23.28in /  788.3hPa SSW 2.7mph /  4.3km/h -999.0mph /  -1607.7km/h 82% 0.00in /  0mm
12:32 33.4 °F /  0.8 °C 28.8 °F /  -1.8 °C 23.28in /  788.3hPa NNE 2.7mph /  4.3km/h -999.0mph /  -1607.7km/h 83% 0.00in /  0mm
12:47 32.9 °F /  0.5 °C 29.5 °F /  -1.4 °C 23.28in /  788.3hPa West 1.1mph /  1.8km/h -999.0mph /  -1607.7km/h 87% 0.00in /  0mm
13:03 32.2 °F /  0.1 °C 29.0 °F /  -1.7 °C 23.27in /  787.9hPa NE 3.7mph /  6km/h -999.0mph /  -1607.7km/h 88% 0.00in /  0mm
13:19 31.8 °F /  -0.1 °C 27.8 °F /  -2.3 °C 23.27in /  787.9hPa South 7.3mph /  11.7km/h -999.0mph /  -1607.7km/h 85% 0.00in /  0mm
13:36 30.0 °F /  -1.1 °C 26.9 °F /  -2.8 °C 23.27in /  787.9hPa WNW 4.2mph /  6.8km/h -999.0mph /  -1607.7km/h 88% 0.00in /  0mm
13:53 30.7 °F /  -0.7 °C 27.3 °F /  -2.6 °C 23.27in /  787.9hPa Calm   -999.0mph /  -1607.7km/h 87% 0.00in /  0mm
14:09 31.6 °F /  -0.2 °C 28.2 °F /  -2.1 °C 23.27in /  787.9hPa Calm   -999.0mph /  -1607.7km/h 87% 0.00in /  0mm
14:24 29.5 °F /  -1.4 °C 26.4 °F /  -3.1 °C 23.27in /  787.9hPa South 11.9mph /  19.2km/h -999.0mph /  -1607.7km/h 88% 0.00in /  0mm
14:39 28.9 °F /  -1.7 °C 26.6 °F /  -3 °C 23.28in /  788.3hPa ENE 8.3mph /  13.4km/h -999.0mph /  -1607.7km/h 91% 0.00in /  0mm
14:54 29.1 °F /  -1.6 °C 26.8 °F /  -2.9 °C 23.27in /  787.9hPa SSE 6.8mph /  10.9km/h -999.0mph /  -1607.7km/h 91% 0.00in /  0mm
15:10 29.7 °F /  -1.3 °C 27.4 °F /  -2.6 °C 23.27in /  787.9hPa WNW 3.7mph /  6km/h -999.0mph /  -1607.7km/h 91% 0.00in /  0mm
15:25 29.5 °F /  -1.4 °C 27.2 °F /  -2.7 °C 23.26in /  787.6hPa WSW 1.7mph /  2.7km/h -999.0mph /  -1607.7km/h 91% 0.00in /  0mm
15:40 28.6 °F /  -1.9 °C 26.6 °F /  -3 °C 23.27in /  787.9hPa ESE 2.7mph /  4.3km/h -999.0mph /  -1607.7km/h 92% 0.00in /  0mm
15:55 28.0 °F /  -2.2 °C 26.0 °F /  -3.3 °C 23.26in /  787.6hPa South 4.7mph /  7.6km/h -999.0mph /  -1607.7km/h 92% 0.00in /  0mm
16:10 27.1 °F /  -2.7 °C 25.3 °F /  -3.7 °C 23.26in /  787.6hPa WSW 2.7mph /  4.3km/h -999.0mph /  -1607.7km/h 93% 0.00in /  0mm
16:26 27.1 °F /  -2.7 °C 25.3 °F /  -3.7 °C 23.26in /  787.6hPa WNW 5.8mph /  9.3km/h -999.0mph /  -1607.7km/h 93% 0.00in /  0mm
16:41 27.1 °F /  -2.7 °C 25.6 °F /  -3.6 °C 23.25in /  787.2hPa SSE 4.2mph /  6.8km/h -999.0mph /  -1607.7km/h 94% 0.00in /  0mm
16:56 27.1 °F /  -2.7 °C 25.6 °F /  -3.6 °C 23.25in /  787.2hPa SE 1.1mph /  1.8km/h -999.0mph /  -1607.7km/h 94% 0.00in /  0mm
17:12 26.8 °F /  -2.9 °C 25.3 °F /  -3.7 °C 23.25in /  787.2hPa SE 2.7mph /  4.3km/h -999.0mph /  -1607.7km/h 94% 0.00in /  0mm
17:27 26.6 °F /  -3 °C 25.4 °F /  -3.7 °C 23.25in /  787.2hPa SSE 4.2mph /  6.8km/h -999.0mph /  -1607.7km/h 95% 0.00in /  0mm
17:42 26.6 °F /  -3 °C 25.4 °F /  -3.7 °C 23.25in /  787.2hPa South 3.2mph /  5.1km/h -999.0mph /  -1607.7km/h 95% 0.00in /  0mm
17:57 26.6 °F /  -3 °C 25.4 °F /  -3.7 °C 23.25in /  787.2hPa SE 4.2mph /  6.8km/h -999.0mph /  -1607.7km/h 95% 0.00in /  0mm
18:12 26.6 °F /  -3 °C 25.4 °F /  -3.7 °C 23.25in /  787.2hPa SE 5.8mph /  9.3km/h -999.0mph /  -1607.7km/h 95% 0.00in /  0mm
18:28 26.8 °F /  -2.9 °C 25.6 °F /  -3.6 °C 23.25in /  787.2hPa NE 3.7mph /  6km/h -999.0mph /  -1607.7km/h 95% 0.00in /  0mm
18:43 27.0 °F /  -2.8 °C 25.8 °F /  -3.4 °C 23.25in /  787.2hPa ESE 2.7mph /  4.3km/h 18.6mph /  29.9km/h 95% 0.00in /  0mm
18:58 26.4 °F /  -3.1 °C 25.2 °F /  -3.8 °C 23.25in /  787.2hPa ESE 7.3mph /  11.7km/h -999.0mph /  -1607.7km/h 95% 0.00in /  0mm
19:13 26.1 °F /  -3.3 °C 24.6 °F /  -4.1 °C 23.26in /  787.6hPa SSW 1.7mph /  2.7km/h -999.0mph /  -1607.7km/h 94% 0.00in /  0mm
19:28 26.1 °F /  -3.3 °C 24.9 °F /  -3.9 °C 23.26in /  787.6hPa SE 4.2mph /  6.8km/h -999.0mph /  -1607.7km/h 95% 0.00in /  0mm
19:44 25.5 °F /  -3.6 °C 23.8 °F /  -4.6 °C 23.26in /  787.6hPa NNW 2.2mph /  3.5km/h -999.0mph /  -1607.7km/h 93% 0.00in /  0mm
19:59 25.3 °F /  -3.7 °C 23.8 °F /  -4.6 °C 23.26in /  787.6hPa North 2.7mph /  4.3km/h -999.0mph /  -1607.7km/h 94% 0.00in /  0mm
20:15 25.2 °F /  -3.8 °C 23.5 °F /  -4.7 °C 23.28in /  788.3hPa WSW 4.2mph /  6.8km/h -999.0mph /  -1607.7km/h 93% 0.00in /  0mm
20:30 24.6 °F /  -4.1 °C 22.9 °F /  -5.1 °C 23.29in /  788.6hPa NE 4.2mph /  6.8km/h -999.0mph /  -1607.7km/h 93% 0.00in /  0mm
20:45 22.8 °F /  -5.1 °C 20.8 °F /  -6.2 °C 23.30in /  788.9hPa NW 5.3mph /  8.5km/h -999.0mph /  -1607.7km/h 92% 0.00in /  0mm
21:01 21.9 °F /  -5.6 °C 19.7 °F /  -6.8 °C 23.31in /  789.3hPa SE 1.7mph /  2.7km/h -999.0mph /  -1607.7km/h 91% 0.00in /  0mm
21:16 21.2 °F /  -6 °C 19.2 °F /  -7.1 °C 23.31in /  789.3hPa Calm   -999.0mph /  -1607.7km/h 92% 0.00in /  0mm
21:31 19.8 °F /  -6.8 °C 17.6 °F /  -8 °C 23.32in /  789.6hPa NNW 4.7mph /  7.6km/h -999.0mph /  -1607.7km/h 91% 0.00in /  0mm
21:46 18.7 °F /  -7.4 °C 16.3 °F /  -8.7 °C 23.34in /  790.3hPa Calm   -999.0mph /  -1607.7km/h 90% 0.00in /  0mm
22:01 18.1 °F /  -7.7 °C 15.7 °F /  -9.1 °C 23.33in /  790hPa Calm   -999.0mph /  -1607.7km/h 90% 0.00in /  0mm
22:17 16.9 °F /  -8.4 °C 14.5 °F /  -9.7 °C 23.35in /  790.6hPa WNW 3.7mph /  6km/h -999.0mph /  -1607.7km/h 90% 0.00in /  0mm
22:32 16.0 °F /  -8.9 °C 13.6 °F /  -10.2 °C 23.34in /  790.3hPa WNW 3.7mph /  6km/h -999.0mph /  -1607.7km/h 90% 0.00in /  0mm
22:47 15.3 °F /  -9.3 °C 11.9 °F /  -11.2 °C 23.34in /  790.3hPa Calm   -999.0mph /  -1607.7km/h 86% 0.00in /  0mm
23:02 14.7 °F /  -9.6 °C 10.5 °F /  -11.9 °C 23.34in /  790.3hPa North 1.7mph /  2.7km/h -999.0mph /  -1607.7km/h 83% 0.00in /  0mm
23:18 14.5 °F /  -9.7 °C 9.5 °F /  -12.5 °C 23.34in /  790.3hPa NNW 3.2mph /  5.1km/h -999.0mph /  -1607.7km/h 80% 0.00in /  0mm
23:33 14.9 °F /  -9.5 °C 8.1 °F /  -13.3 °C 23.34in /  790.3hPa NNW 1.7mph /  2.7km/h -999.0mph /  -1607.7km/h 74% 0.00in /  0mm
23:48 15.1 °F /  -9.4 °C 6.4 °F /  -14.2 °C 23.34in /  790.3hPa NNW 3.2mph /  5.1km/h -999.0mph /  -1607.7km/h 68% 0.00in /  0mm
Big Bear CA Weather